Time;durP1;ratioP1;P1;durP2;ratioP2;P2;SDS_P1;SDS_P2;PMS_P1;PMS_P2;Temp;Humidity;BMP_temperature;BMP_pressure;BME280_temperature;BME280_humidity;BME280_pressure;Samples;Min_cycle;Max_cycle;Signal;HPM_P1;HPM_P2
2020/12/11 00:00:17;;;;;;;27.13;17.67;;;;;;;7.01;100.00;94752.63;5072607;28;20197;-68
2020/12/11 00:02:44;;;;;;;20.27;14.43;;;;;;;6.88;100.00;94757.50;5072562;28;20195;-66
2020/12/11 00:05:11;;;;;;;29.27;18.70;;;;;;;6.84;100.00;94763.53;5072429;28;20196;-66
2020/12/11 00:07:38;;;;;;;24.90;16.30;;;;;;;6.84;100.00;94756.56;5072427;28;20207;-68
2020/12/11 00:10:06;;;;;;;26.77;16.43;;;;;;;6.80;100.00;94758.19;5072252;28;20584;-67
2020/12/11 00:12:34;;;;;;;27.87;16.47;;;;;;;6.79;100.00;94764.41;5072363;28;20200;-68
2020/12/11 00:15:06;;;;;;;26.03;16.77;;;;;;;6.79;100.00;94761.03;5072329;28;20213;-66
2020/12/11 00:17:33;;;;;;;22.73;13.47;;;;;;;6.63;100.00;94760.56;5072280;28;20204;-68
2020/12/11 00:20:00;;;;;;;16.50;10.87;;;;;;;6.65;100.00;94760.28;5072188;28;20208;-66
2020/12/11 00:22:27;;;;;;;22.50;12.30;;;;;;;6.69;100.00;94767.16;5071982;28;20246;-69
2020/12/11 00:24:54;;;;;;;28.10;16.90;;;;;;;6.71;100.00;94769.47;5072096;28;20196;-67
2020/12/11 00:27:21;;;;;;;29.57;17.77;;;;;;;6.70;100.00;94773.84;5071994;28;20197;-68
2020/12/11 00:29:48;;;;;;;26.30;14.60;;;;;;;6.65;100.00;94768.03;5071839;28;20230;-67
2020/12/11 00:32:15;;;;;;;21.77;13.70;;;;;;;6.66;100.00;94782.47;5071897;28;20195;-68
2020/12/11 00:34:42;;;;;;;26.67;15.97;;;;;;;6.64;100.00;94784.56;5071994;28;20205;-69
2020/12/11 00:37:09;;;;;;;21.13;11.77;;;;;;;6.56;100.00;94780.06;5072107;28;20291;-68
2020/12/11 00:39:36;;;;;;;18.90;11.60;;;;;;;6.56;100.00;94777.47;5071763;28;20210;-68
2020/12/11 00:42:02;;;;;;;21.23;11.27;;;;;;;6.51;100.00;94783.50;5071673;28;20234;-68
2020/12/11 00:44:29;;;;;;;22.67;13.00;;;;;;;6.48;100.00;94781.47;5071953;28;20193;-68
2020/12/11 00:47:01;;;;;;;21.73;13.23;;;;;;;6.55;100.00;94786.25;5071877;28;20201;-68
2020/12/11 00:49:28;;;;;;;25.63;15.13;;;;;;;6.50;100.00;94797.44;5071609;28;20211;-68
2020/12/11 00:51:55;;;;;;;28.97;15.43;;;;;;;6.54;100.00;94785.50;5071492;28;20631;-67
2020/12/11 00:54:21;;;;;;;24.77;14.33;;;;;;;6.50;100.00;94789.69;5071555;28;20585;-68
2020/12/11 00:56:48;;;;;;;25.33;17.10;;;;;;;6.50;100.00;94789.69;5071493;28;20203;-69
2020/12/11 00:59:15;;;;;;;29.93;15.43;;;;;;;6.52;100.00;94787.63;5071379;28;20199;-68
2020/12/11 01:01:43;;;;;;;50.23;26.40;;;;;;;6.56;100.00;94785.22;5071876;28;20204;-69
2020/12/11 01:04:10;;;;;;;34.97;19.80;;;;;;;6.55;100.00;94783.69;5071720;28;20201;-68
2020/12/11 01:06:37;;;;;;;25.43;14.17;;;;;;;6.54;100.00;94785.50;5071222;28;20195;-66
2020/12/11 01:09:04;;;;;;;23.27;14.63;;;;;;;6.43;100.00;94787.47;5071271;28;20206;-67
2020/12/11 01:11:32;;;;;;;20.07;13.00;;;;;;;6.39;100.00;94778.78;5071347;28;20607;-68
2020/12/11 01:13:59;;;;;;;21.50;12.77;;;;;;;6.33;100.00;94779.13;5071206;28;20282;-66
2020/12/11 01:16:25;;;;;;;23.70;13.57;;;;;;;6.32;100.00;94782.78;5071029;28;20197;-69
2020/12/11 01:18:52;;;;;;;16.20;9.47;;;;;;;6.24;100.00;94786.00;5070994;28;20196;-68
2020/12/11 01:21:20;;;;;;;15.47;9.30;;;;;;;6.32;100.00;94783.56;5071513;28;20282;-68
2020/12/11 01:23:47;;;;;;;11.07;6.93;;;;;;;6.33;100.00;94779.91;5070928;28;20196;-65
2020/12/11 01:26:13;;;;;;;17.30;6.90;;;;;;;6.33;100.00;94787.66;5070845;28;20583;-67
2020/12/11 01:28:40;;;;;;;21.20;10.30;;;;;;;6.32;100.00;94793.88;5070988;28;20212;-68
2020/12/11 01:31:07;;;;;;;36.23;16.53;;;;;;;6.33;100.00;94789.47;5070711;28;20232;-67
2020/12/11 01:33:34;;;;;;;24.30;14.73;;;;;;;6.36;100.00;94783.75;5070135;28;20204;-67
2020/12/11 01:36:00;;;;;;;23.73;14.43;;;;;;;6.41;100.00;94775.94;5070623;28;20545;-68
2020/12/11 01:38:28;;;;;;;19.13;10.40;;;;;;;6.47;100.00;94778.16;5070841;28;20192;-68
2020/12/11 01:40:55;;;;;;;22.17;14.03;;;;;;;6.47;100.00;94772.22;5070238;28;20731;-68
2020/12/11 01:43:22;;;;;;;17.87;11.47;;;;;;;6.46;100.00;94779.19;5070804;28;20202;-67
2020/12/11 01:45:49;;;;;;;24.40;15.00;;;;;;;6.46;100.00;94778.41;5070606;28;20200;-67
2020/12/11 01:48:16;;;;;;;23.70;14.40;;;;;;;6.44;100.00;94775.34;5070465;28;20214;-67
2020/12/11 01:50:43;;;;;;;20.93;12.93;;;;;;;6.44;100.00;94767.59;5070676;28;20234;-66
2020/12/11 01:53:10;;;;;;;20.10;13.17;;;;;;;6.44;100.00;94767.59;5070365;28;20668;-68
2020/12/11 01:55:41;;;;;;;29.03;14.97;;;;;;;6.48;100.00;94768.56;5070537;28;20200;-67
2020/12/11 01:58:14;;;;;;;22.47;13.07;;;;;;;6.51;100.00;94759.50;5070434;28;20272;-68
2020/12/11 02:00:42;;;;;;;23.03;13.03;;;;;;;6.49;100.00;94762.34;5070303;28;20211;-69
2020/12/11 02:03:10;;;;;;;18.63;13.73;;;;;;;6.52;100.00;94759.22;5070576;28;20274;-69
2020/12/11 02:05:38;;;;;;;23.03;13.87;;;;;;;6.53;100.00;94758.16;5070538;28;20199;-69
2020/12/11 02:08:04;;;;;;;22.43;13.57;;;;;;;6.56;100.00;94767.94;5070277;28;20197;-69
2020/12/11 02:10:31;;;;;;;18.97;11.93;;;;;;;6.59;100.00;94766.56;5070221;28;20235;-68
2020/12/11 02:13:06;;;;;;;20.00;12.43;;;;;;;6.55;100.00;94766.38;5070117;28;20209;-67
2020/12/11 02:15:33;;;;;;;17.67;12.03;;;;;;;6.56;100.00;94760.19;5070452;28;20196;-68
2020/12/11 02:18:00;;;;;;;16.17;10.57;;;;;;;6.59;100.00;94756.25;5070155;28;20199;-67
2020/12/11 02:20:27;;;;;;;14.00;9.30;;;;;;;6.61;100.00;94760.09;5070072;28;20205;-69
2020/12/11 02:22:54;;;;;;;13.50;10.30;;;;;;;6.66;100.00;94761.81;5070064;28;20671;-69
2020/12/11 02:25:21;;;;;;;15.23;10.83;;;;;;;6.66;100.00;94766.97;5070203;28;20192;-68
2020/12/11 02:27:49;;;;;;;13.87;9.73;;;;;;;6.69;100.00;94767.16;5069945;28;20202;-68
2020/12/11 02:30:16;;;;;;;13.47;9.60;;;;;;;6.68;100.00;94763.03;5069918;28;20723;-68
2020/12/11 02:32:43;;;;;;;16.70;10.30;;;;;;;6.67;100.00;94768.50;5070038;28;20575;-67
2020/12/11 02:35:10;;;;;;;17.80;11.47;;;;;;;6.64;100.00;94769.84;5070154;28;20198;-69
2020/12/11 02:37:37;;;;;;;17.07;11.60;;;;;;;6.67;100.00;94769.28;5069967;28;20675;-67
2020/12/11 02:40:06;;;;;;;20.60;12.03;;;;;;;6.71;100.00;94769.47;5070049;28;20572;-68
2020/12/11 02:42:33;;;;;;;18.50;12.27;;;;;;;6.73;100.00;94768.13;5069901;28;20573;-69
2020/12/11 02:45:00;;;;;;;19.17;11.50;;;;;;;6.56;100.00;94772.31;5072665;28;20574;-68
2020/12/11 02:47:32;;;;;;;16.23;10.63;;;;;;;6.42;100.00;94770.50;5074200;28;20210;-69
2020/12/11 02:50:00;;;;;;;17.10;10.83;;;;;;;6.48;100.00;94771.13;5074334;28;20199;-68
2020/12/11 02:52:27;;;;;;;15.87;10.47;;;;;;;6.42;100.00;94767.16;5073881;28;20231;-68
2020/12/11 02:54:54;;;;;;;18.77;12.17;;;;;;;6.47;100.00;94769.63;5073787;28;20202;-68
2020/12/11 02:57:21;;;;;;;20.30;13.57;;;;;;;6.50;100.00;94769.06;5073845;28;20284;-68
2020/12/11 02:59:48;;;;;;;23.40;15.27;;;;;;;6.57;100.00;94774.63;5073826;28;20200;-69
2020/12/11 03:02:15;;;;;;;21.50;14.13;;;;;;;6.52;100.00;94772.13;5073747;28;20667;-68
2020/12/11 03:04:42;;;;;;;23.57;13.90;;;;;;;6.51;100.00;94777.56;5073526;28;20201;-66
2020/12/11 03:07:08;;;;;;;19.20;12.17;;;;;;;6.62;100.00;94771.94;5073594;28;20189;-68
2020/12/11 03:09:35;;;;;;;15.97;11.13;;;;;;;6.63;100.00;94775.28;5073617;28;20571;-68
2020/12/11 03:12:02;;;;;;;16.17;10.60;;;;;;;6.59;100.00;94782.81;5073172;28;20717;-68
2020/12/11 03:14:30;;;;;;;17.53;10.97;;;;;;;6.59;100.00;94782.06;5073562;28;20545;-68
2020/12/11 03:16:57;;;;;;;15.90;10.60;;;;;;;6.59;100.00;94771.72;5073477;28;20195;-68
2020/12/11 03:19:24;;;;;;;16.73;10.77;;;;;;;6.61;100.00;94779.97;5073508;28;20203;-68
2020/12/11 03:21:51;;;;;;;17.37;10.70;;;;;;;6.59;100.00;94777.66;5073361;28;20200;-67
2020/12/11 03:24:17;;;;;;;14.97;10.50;;;;;;;6.59;100.00;94785.41;5073168;28;20577;-68
2020/12/11 03:26:44;;;;;;;13.80;9.97;;;;;;;6.59;100.00;94787.22;5073387;28;20203;-68
2020/12/11 03:29:11;;;;;;;12.90;9.23;;;;;;;6.65;100.00;94786.84;5073133;28;20201;-69
2020/12/11 03:31:38;;;;;;;14.10;10.60;;;;;;;6.67;100.00;94787.34;5073283;28;20232;-67
2020/12/11 03:34:05;;;;;;;13.40;9.67;;;;;;;6.70;100.00;94789.34;5073136;28;20196;-67
2020/12/11 03:36:32;;;;;;;18.43;12.70;;;;;;;6.70;100.00;94793.75;5073008;28;20203;-69
2020/12/11 03:38:59;;;;;;;19.53;12.50;;;;;;;6.69;100.00;94799.94;5073005;28;20559;-68
2020/12/11 03:41:26;;;;;;;19.33;14.07;;;;;;;6.65;100.00;94799.75;5071897;28;20230;-68
2020/12/11 03:43:52;;;;;;;19.63;12.40;;;;;;;6.61;100.00;94809.13;5071899;28;20195;-69
2020/12/11 03:46:20;;;;;;;17.60;12.10;;;;;;;6.61;100.00;94811.72;5071679;28;20196;-70
2020/12/11 03:48:49;;;;;;;16.87;10.43;;;;;;;6.62;100.00;94821.00;5071772;28;20203;-69
2020/12/11 03:51:17;;;;;;;13.40;9.90;;;;;;;6.66;100.00;94821.19;5071485;28;20232;-69
2020/12/11 03:53:44;;;;;;;13.57;9.13;;;;;;;6.70;100.00;94824.72;5071837;28;20198;-69
2020/12/11 03:56:13;;;;;;;11.63;8.30;;;;;;;6.66;100.00;94824.53;5070918;28;20193;-69
2020/12/11 03:58:40;;;;;;;13.67;8.87;;;;;;;6.68;100.00;94832.75;5071674;28;20195;-69
2020/12/11 04:01:09;;;;;;;11.63;9.20;;;;;;;6.68;100.00;94832.75;5071475;28;20231;-69
2020/12/11 04:03:36;;;;;;;11.33;8.43;;;;;;;6.64;100.00;94824.03;5071426;28;20221;-69
2020/12/11 04:06:07;;;;;;;12.77;9.57;;;;;;;6.59;100.00;94829.28;5071604;28;20574;-68
2020/12/11 04:08:34;;;;;;;10.93;8.80;;;;;;;6.58;100.00;94837.31;5071438;28;20200;-67
2020/12/11 04:11:04;;;;;;;14.27;9.50;;;;;;;6.59;100.00;94838.84;5071194;28;20707;-68
2020/12/11 04:13:31;;;;;;;15.17;9.80;;;;;;;6.59;100.00;94844.78;5071309;28;20196;-68
2020/12/11 04:15:58;;;;;;;13.73;8.90;;;;;;;6.56;100.00;94835.03;5071098;28;20198;-67
2020/12/11 04:18:25;;;;;;;16.17;10.87;;;;;;;6.56;100.00;94839.41;5071120;28;20563;-67
2020/12/11 04:20:52;;;;;;;14.50;10.20;;;;;;;6.60;100.00;94841.16;5071356;28;20203;-67
2020/12/11 04:23:20;;;;;;;15.30;10.53;;;;;;;6.63;100.00;94850.91;5071318;28;20207;-66
2020/12/11 04:25:47;;;;;;;17.83;11.57;;;;;;;6.60;100.00;94850.72;5071069;28;20197;-68
2020/12/11 04:28:13;;;;;;;17.90;12.17;;;;;;;6.60;100.00;94855.88;5070873;28;20581;-67
2020/12/11 04:30:40;;;;;;;18.40;12.43;;;;;;;6.71;100.00;94858.00;5070792;28;20228;-69
2020/12/11 04:33:07;;;;;;;18.13;12.33;;;;;;;6.63;100.00;94853.47;5071218;28;20546;-68
2020/12/11 04:35:34;;;;;;;18.30;12.67;;;;;;;6.47;100.00;94859.97;5070949;28;20192;-68
2020/12/11 04:38:01;;;;;;;15.30;11.13;;;;;;;6.50;100.00;94864.53;5071012;28;20199;-67
2020/12/11 04:40:29;;;;;;;16.73;12.20;;;;;;;6.42;100.00;94857.47;5040657;28;868191;-68
2020/12/11 04:42:56;;;;;;;17.37;12.83;;;;;;;6.41;100.00;94859.28;5071901;28;20197;-68
2020/12/11 04:45:24;;;;;;;18.07;12.53;;;;;;;6.44;100.00;94866.44;5071575;28;20544;-69
2020/12/11 04:47:51;;;;;;;17.13;12.90;;;;;;;6.40;100.00;94864.69;5071651;28;20188;-69
2020/12/11 04:50:19;;;;;;;17.67;12.60;;;;;;;6.41;100.00;94864.44;5071835;28;20189;-69
2020/12/11 04:52:47;;;;;;;19.03;13.10;;;;;;;6.41;100.00;94864.44;5071636;28;20224;-70
2020/12/11 04:55:16;;;;;;;18.00;13.23;;;;;;;6.43;100.00;94857.16;5071596;28;20205;-68
2020/12/11 04:57:46;;;;;;;17.83;14.13;;;;;;;6.35;100.00;94857.03;5071655;28;20200;-68
2020/12/11 05:00:14;;;;;;;21.70;14.40;;;;;;;6.41;100.00;94858.50;5071678;28;20193;-69
2020/12/11 05:02:42;;;;;;;52.70;31.93;;;;;;;6.42;100.00;94854.88;5071440;28;20232;-68
2020/12/11 05:05:10;;;;;;;144.13;66.30;;;;;;;6.37;100.00;94847.22;5071150;28;20655;-69
2020/12/11 05:07:37;;;;;;;100.90;55.23;;;;;;;6.36;100.00;94845.69;5070801;28;20572;-69
2020/12/11 05:10:06;;;;;;;74.03;46.20;;;;;;;6.32;100.00;94849.88;5071217;28;20730;-68
2020/12/11 05:12:34;;;;;;;29.07;21.33;;;;;;;6.24;100.00;94847.91;5071065;28;20232;-69
2020/12/11 05:15:05;;;;;;;24.93;17.87;;;;;;;6.20;100.00;94841.78;5071156;28;20196;-69
2020/12/11 05:17:34;;;;;;;30.80;20.87;;;;;;;6.11;100.00;94849.41;5071111;28;20195;-69
2020/12/11 05:20:01;;;;;;;43.27;26.93;;;;;;;5.98;100.00;94850.88;5071059;28;20200;-68
2020/12/11 05:22:32;;;;;;;61.83;34.83;;;;;;;5.98;100.00;94860.41;5071178;28;20283;-68
2020/12/11 05:24:59;;;;;;;57.93;32.20;;;;;;;5.96;100.00;94858.13;5070864;28;20243;-67
2020/12/11 05:27:32;;;;;;;79.93;37.07;;;;;;;5.88;100.00;94851.00;5071425;28;20204;-68
2020/12/11 05:30:00;;;;;;;35.53;21.80;;;;;;;5.77;100.00;94856.56;5070917;28;20218;-67
2020/12/11 05:32:38;;;;;;;26.90;17.20;;;;;;;5.63;100.00;94853.88;5070713;28;20311;-69
2020/12/11 05:35:07;;;;;;;23.60;16.13;;;;;;;5.58;100.00;94857.28;5070724;28;20219;-67
2020/12/11 05:37:47;;;;;;;25.27;16.03;;;;;;;5.44;100.00;94876.28;5070572;28;20671;-66
2020/12/11 05:40:18;;;;;;;23.10;14.80;;;;;;;5.30;100.00;94876.19;5070691;28;20235;-69
2020/12/11 05:43:00;;;;;;;22.57;15.20;;;;;;;5.26;100.00;94872.63;5070771;28;20192;-68
2020/12/11 05:45:27;;;;;;;22.37;15.23;;;;;;;5.07;100.00;94875.16;5071113;28;20196;-67
2020/12/11 05:47:59;;;;;;;25.83;16.10;;;;;;;4.92;100.00;94885.59;5070493;28;20203;-68
2020/12/11 05:50:26;;;;;;;26.37;16.60;;;;;;;4.90;100.00;94892.03;5070546;28;20275;-67
2020/12/11 05:52:54;;;;;;;34.30;18.27;;;;;;;4.84;100.00;94901.63;5070527;28;20223;-68
2020/12/11 05:55:23;;;;;;;31.97;18.53;;;;;;;4.98;100.00;94897.38;5070522;28;20549;-68
2020/12/11 05:57:52;;;;;;;30.50;17.50;;;;;;;5.06;100.00;94901.94;5070407;28;20663;-66
2020/12/11 06:00:20;;;;;;;31.30;18.83;;;;;;;5.24;100.00;94902.25;5070534;28;20195;-70
2020/12/11 06:02:48;;;;;;;25.93;17.57;;;;;;;5.27;100.00;94912.81;5070307;28;20196;-66
2020/12/11 06:05:18;;;;;;;26.50;17.60;;;;;;;5.27;100.00;94915.38;5070217;28;20279;-68
2020/12/11 06:07:45;;;;;;;26.10;16.30;;;;;;;5.38;100.00;94916.03;5070288;28;20674;-68
2020/12/11 06:10:14;;;;;;;25.87;16.40;;;;;;;5.41;100.00;94923.97;5070252;28;20194;-68
2020/12/11 06:12:41;;;;;;;27.83;15.80;;;;;;;5.48;100.00;94923.66;5070173;28;20239;-67
2020/12/11 06:15:18;;;;;;;25.40;17.37;;;;;;;5.57;100.00;94922.78;5070202;28;20192;-68
2020/12/11 06:17:49;;;;;;;27.23;17.73;;;;;;;5.59;100.00;94925.06;5070231;28;20205;-68
2020/12/11 06:20:19;;;;;;;30.73;17.50;;;;;;;5.67;100.00;94927.06;5069952;28;20275;-68
2020/12/11 06:22:46;;;;;;;26.93;17.30;;;;;;;5.77;100.00;94928.75;5070176;28;20222;-68
2020/12/11 06:25:25;;;;;;;29.27;16.73;;;;;;;5.73;100.00;94931.09;5070116;28;20554;-67
2020/12/11 06:27:52;;;;;;;20.93;15.10;;;;;;;5.83;100.00;94935.38;5070209;28;20197;-68
2020/12/11 06:30:27;;;;;;;28.13;17.27;;;;;;;5.91;100.00;94927.81;5069889;28;20751;-67
2020/12/11 06:32:55;;;;;;;25.43;17.47;;;;;;;5.94;100.00;94926.47;5069751;28;20726;-68
2020/12/11 06:35:23;;;;;;;25.07;16.40;;;;;;;5.95;100.00;94917.69;5069839;28;20590;-68
2020/12/11 06:37:53;;;;;;;25.67;15.10;;;;;;;6.00;100.00;94920.22;5069847;28;20193;-68
2020/12/11 06:40:47;;;;;;;22.53;13.80;;;;;;;6.12;100.00;94917.25;5069623;28;20228;-68
2020/12/11 06:43:41;;;;;;;24.73;14.47;;;;;;;6.14;100.00;94925.44;5069656;28;20249;-68
2020/12/11 06:46:13;;;;;;;25.00;15.40;;;;;;;6.12;100.00;94928.31;5069776;28;20692;-67
2020/12/11 06:49:07;;;;;;;33.40;16.47;;;;;;;6.13;100.00;94922.09;5070081;28;20756;-68
2020/12/11 06:51:56;;;;;;;22.20;15.07;;;;;;;6.18;100.00;94921.25;5069695;28;20224;-65
2020/12/11 06:54:55;;;;;;;23.63;15.63;;;;;;;6.22;100.00;94919.69;5069912;28;20199;-66
2020/12/11 06:57:33;;;;;;;28.83;16.37;;;;;;;6.28;100.00;94910.78;5069884;28;20207;-67
2020/12/11 07:00:00;;;;;;;24.07;15.37;;;;;;;6.38;100.00;94911.41;5069911;28;20578;-68
2020/12/11 07:02:27;;;;;;;21.43;14.77;;;;;;;6.38;100.00;94910.66;5069563;28;20570;-66
2020/12/11 07:04:54;;;;;;;23.03;14.40;;;;;;;6.47;100.00;94921.91;5069595;28;20207;-68
2020/12/11 07:07:30;;;;;;;24.30;15.20;;;;;;;6.47;100.00;94930.41;5069673;28;20557;-68
2020/12/11 07:09:57;;;;;;;25.50;15.07;;;;;;;6.51;100.00;94928.03;5069968;28;20586;-66
2020/12/11 07:12:24;;;;;;;22.60;13.77;;;;;;;6.62;100.00;94937.16;5069512;28;20232;-69
2020/12/11 07:14:51;;;;;;;21.23;12.87;;;;;;;6.53;100.00;94938.81;5069724;28;20188;-70
2020/12/11 07:17:25;;;;;;;21.63;12.97;;;;;;;6.49;100.00;94943.78;5069520;28;20276;-69
2020/12/11 07:19:51;;;;;;;21.97;13.27;;;;;;;6.58;100.00;94943.13;5069632;28;20279;-68
2020/12/11 07:22:21;;;;;;;18.10;12.50;;;;;;;6.66;100.00;94932.97;5069738;28;20623;-67
2020/12/11 07:24:49;;;;;;;20.97;11.97;;;;;;;6.60;100.00;94936.66;5069451;28;20198;-68
2020/12/11 07:27:15;;;;;;;20.57;13.20;;;;;;;6.56;100.00;94934.91;5069443;28;20853;-68
2020/12/11 07:29:49;;;;;;;19.37;12.70;;;;;;;6.60;100.00;94936.66;5069398;28;20207;-68
2020/12/11 07:32:18;;;;;;;19.53;12.47;;;;;;;6.62;100.00;94939.75;5072365;28;20228;-69
2020/12/11 07:34:46;;;;;;;16.33;11.67;;;;;;;6.65;100.00;94943.56;5073261;28;20279;-68
2020/12/11 07:37:13;;;;;;;18.37;11.33;;;;;;;6.65;100.00;94935.81;5073056;28;20203;-70
2020/12/11 07:39:40;;;;;;;16.53;11.20;;;;;;;6.70;100.00;94948.66;5072763;28;20197;-68
2020/12/11 07:42:09;;;;;;;19.03;10.93;;;;;;;6.59;100.00;94942.88;5073002;28;20213;-69
2020/12/11 07:44:37;;;;;;;15.80;10.70;;;;;;;6.58;100.00;94943.91;5072688;28;20199;-68
2020/12/11 07:47:07;;;;;;;17.53;10.47;;;;;;;6.65;100.00;94946.91;5072783;28;20202;-69
2020/12/11 07:49:35;;;;;;;18.20;10.27;;;;;;;6.55;100.00;94939.31;5073110;28;20214;-68
2020/12/11 07:52:02;;;;;;;16.53;10.13;;;;;;;6.49;100.00;94943.00;5072721;28;20235;-69
2020/12/11 07:54:35;;;;;;;19.33;10.60;;;;;;;6.64;100.00;94929.88;5072826;28;20776;-69
2020/12/11 07:57:10;;;;;;;18.37;10.53;;;;;;;6.89;100.00;94933.88;5072829;28;20232;-69
2020/12/11 07:59:37;;;;;;;16.20;10.63;;;;;;;7.19;100.00;94941.13;5073098;28;20272;-68
2020/12/11 08:02:04;;;;;;;12.10;9.53;;;;;;;7.47;100.00;94936.00;5072845;28;20699;-69
2020/12/11 08:04:31;;;;;;;12.77;8.93;;;;;;;7.68;100.00;94931.94;5073379;28;20189;-70
2020/12/11 08:06:58;;;;;;;15.30;11.07;;;;;;;7.78;100.00;94937.69;5072599;28;20188;-68
2020/12/11 08:09:30;;;;;;;15.80;11.57;;;;;;;7.86;100.00;94932.91;5072407;28;20204;-71
2020/12/11 08:12:12;;;;;;;16.43;11.77;;;;;;;7.99;100.00;94938.06;5072700;28;20231;-68
2020/12/11 08:14:40;;;;;;;14.83;10.17;;;;;;;7.96;100.00;94943.81;5072563;28;20786;-69
2020/12/11 08:17:08;;;;;;;16.60;9.87;;;;;;;8.12;100.00;94939.09;5072210;28;20254;-70
2020/12/11 08:19:35;;;;;;;16.17;9.00;;;;;;;8.41;100.00;94941.38;5072310;28;20216;-68
2020/12/11 08:22:11;;;;;;;11.47;8.40;;;;;;;8.37;100.00;94943.75;5072174;28;20588;-69
2020/12/11 08:24:38;;;;;;;11.83;8.63;;;;;;;8.50;100.00;94948.13;5072462;28;20192;-70
2020/12/11 08:27:05;;;;;;;14.40;9.40;;;;;;;8.71;98.76;94947.69;5072840;28;20274;-70
2020/12/11 08:29:33;;;;;;;12.23;8.67;;;;;;;8.76;100.00;94945.75;5072148;28;20192;-71
2020/12/11 08:32:00;;;;;;;13.03;7.93;;;;;;;8.76;96.99;94944.97;5071701;28;20326;-70
2020/12/11 08:34:30;;;;;;;10.47;7.50;;;;;;;8.93;97.62;94945.06;5071902;28;20196;-70
2020/12/11 08:37:17;;;;;;;12.43;8.90;;;;;;;9.13;97.18;94949.00;5072106;28;20192;-69
2020/12/11 08:39:43;;;;;;;12.00;9.13;;;;;;;9.13;96.61;94946.41;5071745;28;20283;-71
2020/12/11 08:42:19;;;;;;;13.47;9.83;;;;;;;9.08;96.52;94947.28;5071762;28;20202;-70
2020/12/11 08:47:46;;;;;;;11.93;8.57;;;;;;;9.40;96.30;94954.78;5069778;28;20200;-69
2020/12/11 08:50:23;;;;;;;11.80;8.10;;;;;;;9.43;95.58;94954.19;5071666;28;20681;-70
2020/12/11 08:52:50;;;;;;;11.07;8.07;;;;;;;9.71;95.10;94965.16;5071674;28;20227;-70
2020/12/11 08:55:17;;;;;;;10.77;8.13;;;;;;;9.52;92.38;94959.41;5071567;28;20232;-69
2020/12/11 08:57:44;;;;;;;13.63;8.60;;;;;;;9.51;94.65;94955.31;5071812;28;20199;-71
2020/12/11 09:00:12;;;;;;;11.63;8.87;;;;;;;9.55;94.91;94951.03;5071675;28;20750;-70
2020/12/11 09:02:39;;;;;;;12.50;8.93;;;;;;;9.47;94.76;94949.94;5071579;28;20204;-69
2020/12/11 09:05:06;;;;;;;15.80;9.27;;;;;;;9.52;95.51;94943.84;5071278;28;20284;-71
2020/12/11 09:07:33;;;;;;;9.87;8.57;;;;;;;9.47;94.60;94944.75;5071295;28;20599;-71
2020/12/11 09:10:00;;;;;;;9.63;6.73;;;;;;;9.69;94.30;94941.31;5071348;28;20283;-70
2020/12/11 09:12:27;;;;;;;10.43;6.20;;;;;;;9.84;94.70;94940.16;5071273;28;20227;-70
2020/12/11 09:14:54;;;;;;;7.50;4.33;;;;;;;10.04;88.56;94944.78;5071201;28;20228;-68
2020/12/11 09:17:21;;;;;;;8.30;5.17;;;;;;;10.05;87.86;94946.31;5071389;28;20204;-71
2020/12/11 09:19:48;;;;;;;6.23;4.30;;;;;;;10.00;88.42;94941.25;5071216;28;20572;-71
2020/12/11 09:22:15;;;;;;;5.30;3.70;;;;;;;9.96;85.80;94936.97;5070907;28;20666;-69
2020/12/11 09:24:42;;;;;;;5.83;4.47;;;;;;;10.09;85.63;94939.44;5071018;28;20206;-72
2020/12/11 09:27:11;;;;;;;5.80;4.70;;;;;;;10.15;86.55;94937.47;5070826;28;20287;-70
2020/12/11 09:29:41;;;;;;;6.50;4.40;;;;;;;10.20;86.43;94940.72;5070745;28;20228;-71
2020/12/11 09:32:09;;;;;;;5.37;3.57;;;;;;;10.24;84.96;94923.44;5070742;28;20310;-71
2020/12/11 09:34:37;;;;;;;5.70;3.43;;;;;;;10.32;82.75;94927.88;5070926;28;20200;-70
2020/12/11 09:37:04;;;;;;;4.97;3.60;;;;;;;10.22;85.88;94914.41;5070756;28;20561;-70
2020/12/11 09:39:31;;;;;;;4.80;3.40;;;;;;;10.10;85.61;94909.81;5071151;28;20271;-67
2020/12/11 09:42:03;;;;;;;8.07;2.70;;;;;;;10.13;83.59;94914.41;5070361;28;20338;-70
2020/12/11 09:50:40;;;;;;;8.17;3.47;;;;;;;10.34;85.39;94899.78;5045954;28;20330;-70
2020/12/11 09:53:16;;;;;;;7.27;2.77;;;;;;;10.25;83.35;94901.63;5070192;28;20221;-72
2020/12/11 09:55:47;;;;;;;5.20;3.10;;;;;;;10.10;82.98;94899.44;5070364;28;20286;-71
2020/12/11 09:58:14;;;;;;;4.40;2.90;;;;;;;10.13;83.60;94898.81;5070753;28;20201;-70
2020/12/11 10:00:44;;;;;;;5.30;2.80;;;;;;;10.34;84.44;94894.59;5070343;28;20279;-71
2020/12/11 10:03:11;;;;;;;3.87;2.60;;;;;;;10.20;82.81;94896.56;5070619;28;20271;-71
2020/12/11 10:05:40;;;;;;;7.13;2.90;;;;;;;10.39;82.48;94892.91;5070577;28;20200;-71
2020/12/11 10:08:07;;;;;;;3.77;2.70;;;;;;;10.46;81.70;94888.03;5070249;28;20192;-71
2020/12/11 10:10:34;;;;;;;4.17;2.77;;;;;;;10.61;81.91;94888.28;5070727;28;20224;-71
2020/12/11 10:13:03;;;;;;;3.60;2.70;;;;;;;10.87;83.53;94869.28;5070225;28;20773;-69
2020/12/11 10:15:30;;;;;;;6.13;2.83;;;;;;;10.91;82.73;94870.97;5070389;28;20628;-70
2020/12/11 10:17:58;;;;;;;7.20;3.73;;;;;;;11.16;82.61;94877.91;5070203;28;20203;-71
2020/12/11 10:20:24;;;;;;;4.73;3.07;;;;;;;11.14;82.16;94867.09;5070238;28;20207;-73
2020/12/11 10:22:53;;;;;;;4.33;2.90;;;;;;;10.97;81.05;94874.16;5069981;28;20192;-72
2020/12/11 10:25:20;;;;;;;3.97;2.90;;;;;;;10.84;80.15;94875.88;5070033;28;20225;-72
2020/12/11 10:27:48;;;;;;;5.27;3.43;;;;;;;10.70;80.44;94875.31;5070121;28;20201;-72
2020/12/11 10:30:15;;;;;;;5.87;3.30;;;;;;;10.60;80.09;94871.19;5069872;28;20215;-69
2020/12/11 10:32:42;;;;;;;4.73;3.10;;;;;;;10.41;82.97;94867.41;5069857;28;20263;-72
2020/12/11 10:35:09;;;;;;;4.27;3.10;;;;;;;10.44;82.83;94866.78;5070134;28;20699;-73
2020/12/11 10:37:36;;;;;;;4.77;3.17;;;;;;;10.24;83.15;94863.72;5070001;28;20679;-73
2020/12/11 10:40:05;;;;;;;6.03;3.60;;;;;;;10.14;83.31;94863.25;5069793;28;20330;-71
2020/12/11 10:42:32;;;;;;;4.37;2.90;;;;;;;10.14;84.09;94858.81;5069966;28;20224;-72
2020/12/11 10:44:59;;;;;;;5.00;3.20;;;;;;;10.26;83.38;94846.00;5069710;28;20686;-71
2020/12/11 10:47:26;;;;;;;11.20;3.40;;;;;;;10.12;83.50;94849.78;5069961;28;20201;-71
2020/12/11 10:49:53;;;;;;;5.97;3.60;;;;;;;9.93;83.60;94847.50;5070236;28;20200;-71
2020/12/11 10:52:20;;;;;;;5.67;3.30;;;;;;;9.94;84.00;94844.59;5069891;28;20654;-72
2020/12/11 10:54:49;;;;;;;4.63;3.30;;;;;;;9.93;83.67;94847.50;5069807;28;20279;-72
2020/12/11 10:57:17;;;;;;;4.63;2.80;;;;;;;9.93;85.28;94844.91;5069704;28;20231;-71
2020/12/11 10:59:43;;;;;;;7.87;3.60;;;;;;;10.01;85.57;94849.34;5069599;28;20232;-69
2020/12/11 11:02:10;;;;;;;5.57;3.60;;;;;;;10.09;83.53;94842.63;5069759;28;20207;-70
2020/12/11 11:04:37;;;;;;;4.67;3.37;;;;;;;10.16;84.97;94835.91;5069479;28;20287;-70
2020/12/11 11:07:10;;;;;;;8.30;4.10;;;;;;;10.34;83.95;94837.44;5072399;28;20224;-71
2020/12/11 11:09:41;;;;;;;5.93;3.50;;;;;;;10.18;81.67;94840.81;5073708;28;20265;-71
2020/12/11 11:12:20;;;;;;;3.90;3.20;;;;;;;10.12;82.83;94840.16;5073375;28;20345;-70
2020/12/11 11:18:13;;;;;;;4.03;2.87;;;;;;;10.51;79.83;94831.47;5073319;28;20194;-71
2020/12/11 11:21:04;;;;;;;3.43;2.73;;;;;;;10.59;79.75;94827.34;5073508;28;20196;-71
2020/12/11 11:23:47;;;;;;;5.40;3.20;;;;;;;10.73;80.51;94828.66;5073776;28;20275;-72
2020/12/11 11:26:33;;;;;;;4.23;3.03;;;;;;;10.74;78.55;94825.00;5073251;28;20192;-71
2020/12/11 11:29:00;;;;;;;5.17;3.00;;;;;;;10.83;80.22;94827.56;5073139;28;20626;-73
2020/12/11 11:31:28;;;;;;;5.50;3.40;;;;;;;10.82;79.09;94820.06;5072790;28;20300;-71
2020/12/11 11:33:55;;;;;;;5.90;3.50;;;;;;;10.99;78.37;94820.78;5073424;28;20200;-70
2020/12/11 11:36:22;;;;;;;4.07;3.10;;;;;;;11.08;78.56;94807.75;5072955;28;20288;-72
2020/12/11 11:38:48;;;;;;;7.63;3.97;;;;;;;11.05;79.83;94809.16;5073191;28;20193;-73
2020/12/11 11:44:18;;;;;;;5.33;3.43;;;;;;;11.18;78.84;94802.22;5072443;28;20555;-72